Current Conditions
Mostly Cloudy
Conditions




Pressure
1014.92 (mb) - 29.97 (inHG)
Visibility

6.2 (mimiles) - 10.0 (km)
   Temperature
16  °C
61°F
11  °C
Dewpoint
72  %
 Humidity
   Wind Speed
15  mph
13  kts
24  km/h
6.7  m/s
   Wind Direction
 220°
South West
   Airport Data
EGGD
Location Bristol International 15 mi (24.14 km)
Metar :EGGD 031420Z AUTO 22013KT 9999 BKN024 OVC034 16/11 Q1015
Fri 3rd July 15:20 pm
   Raw Metar Info
Raw METAR is the most common format in the world for the transmission of observational weather data. It is highly standardized through the International Civil Aviation Organization (ICAO), which allows it to be understood throughout most of the world.
   API Info
Data Provided by
https://www.checkwx.com/weather/EGGD
   © Info
CSS/SVG/PHP scripts were developed by weather34.com for use in the weather34 template © 2015-2020

Guide Info provided by Metar-Wikipedia